Time;durP1;ratioP1;P1;durP2;ratioP2;P2;SDS_P1;SDS_P2;PMS_P1;PMS_P2;Temp;Humidity;BMP_temperature;BMP_pressure;BME280_temperature;BME280_humidity;BME280_pressure;Samples;Min_cycle;Max_cycle;Signal;HPM_P1;HPM_P2
2023/06/22 00:00:32;;;;;;;4.40;3.50;;;;;;;19.71;77.72;96873.31;109115;1272;24394;-89
2023/06/22 00:03:25;;;;;;;3.80;3.10;;;;;;;19.70;77.74;96874.89;109064;1266;22523;-89
2023/06/22 00:05:57;;;;;;;6.90;3.60;;;;;;;19.71;77.71;96874.77;107262;1269;2362509;-88
2023/06/22 00:08:35;;;;;;;6.00;3.20;;;;;;;19.74;77.87;96875.98;109055;1267;22571;-88
2023/06/22 00:11:10;;;;;;;8.40;4.10;;;;;;;19.77;77.73;96871.07;109029;1272;22586;-88
2023/06/22 00:13:44;;;;;;;5.30;3.60;;;;;;;19.79;77.71;96872.37;109067;1274;22581;-89
2023/06/22 00:16:16;;;;;;;5.40;3.50;;;;;;;19.86;77.71;96870.54;109047;1273;38610;-89
2023/06/22 00:18:49;;;;;;;5.40;4.00;;;;;;;19.90;77.69;96871.16;109121;1272;22510;-89
2023/06/22 00:21:21;;;;;;;9.20;3.60;;;;;;;19.95;77.46;96868.29;109077;1249;22511;-89
2023/06/22 00:23:53;;;;;;;4.30;3.30;;;;;;;19.98;77.31;96870.10;109084;1272;22578;-89
2023/06/22 00:26:24;;;;;;;6.70;3.70;;;;;;;20.00;77.20;96871.73;109028;1267;70231;-88
2023/06/22 00:28:58;;;;;;;6.60;3.20;;;;;;;20.03;77.08;96877.05;109091;1270;22511;-88
2023/06/22 00:31:30;;;;;;;5.50;3.90;;;;;;;20.05;77.09;96879.56;109095;1269;22688;-88
2023/06/22 00:34:02;;;;;;;6.70;4.00;;;;;;;20.07;76.96;96875.42;109082;1270;22518;-88
2023/06/22 00:36:40;;;;;;;5.00;3.90;;;;;;;20.07;77.03;96873.27;108998;1273;66566;-88
2023/06/22 00:39:12;;;;;;;7.00;3.90;;;;;;;20.07;77.05;96868.70;109052;1274;22538;-88
2023/06/22 00:41:43;;;;;;;5.90;3.80;;;;;;;20.06;77.22;96870.23;109051;1256;22557;-90
2023/06/22 00:44:14;;;;;;;6.20;4.00;;;;;;;20.07;77.30;96873.20;109035;1270;22901;-88
2023/06/22 00:46:45;;;;;;;5.50;4.40;;;;;;;20.10;77.48;96876.27;108994;1270;61585;-88
2023/06/22 00:49:16;;;;;;;6.80;3.50;;;;;;;20.12;77.72;96877.64;109093;1272;22526;-89
2023/06/22 00:51:48;;;;;;;8.00;4.30;;;;;;;20.12;77.57;96874.27;109096;1270;24209;-89
2023/06/22 00:54:24;;;;;;;7.40;4.30;;;;;;;20.13;77.72;96884.16;109093;1272;22579;-88
2023/06/22 00:56:57;;;;;;;6.60;4.50;;;;;;;20.15;77.95;96892.41;109036;1271;31372;-89
2023/06/22 00:59:29;;;;;;;5.80;4.30;;;;;;;20.20;77.99;96893.76;109036;1268;26630;-88
2023/06/22 01:02:00;;;;;;;6.10;4.00;;;;;;;20.23;77.91;96892.32;109021;1267;22586;-89
2023/06/22 01:04:40;;;;;;;6.20;3.90;;;;;;;20.23;77.94;96892.39;108900;1274;185735;-88
2023/06/22 01:07:15;;;;;;;;;;;;;;;20.20;77.72;96886.39;109004;1273;66320;-88
2023/06/22 01:09:55;;;;;;;5.70;3.60;;;;;;;20.19;77.89;96878.66;109095;1273;22516;-89
2023/06/22 01:12:29;;;;;;;6.30;3.50;;;;;;;20.19;77.89;96872.14;109043;1274;22527;-88
2023/06/22 01:15:09;;;;;;;5.30;4.40;;;;;;;20.16;77.76;96870.20;109047;1272;22761;-89
2023/06/22 01:17:44;;;;;;;5.60;3.80;;;;;;;20.11;77.94;96861.13;109033;1273;48447;-89
2023/06/22 01:20:16;;;;;;;5.40;3.50;;;;;;;20.05;77.80;96853.36;109111;1260;22512;-89
2023/06/22 01:23:04;;;;;;;7.40;3.90;;;;;;;19.99;77.89;96853.70;109104;1267;22603;-88
2023/06/22 01:25:44;;;;;;;7.40;4.20;;;;;;;19.96;78.11;96856.59;108975;1272;106927;-89
2023/06/22 01:28:25;;;;;;;10.30;4.20;;;;;;;19.96;78.16;96858.96;109143;1267;22534;-89
2023/06/22 01:31:04;;;;;;;7.00;4.00;;;;;;;19.95;78.43;96853.25;109075;1273;22565;-90
2023/06/22 01:33:38;;;;;;;7.80;4.40;;;;;;;19.94;78.51;96854.52;109139;1267;23025;-89
2023/06/22 01:36:12;;;;;;;4.60;3.90;;;;;;;19.93;78.68;96856.70;108977;1271;46815;-89
2023/06/22 01:38:46;;;;;;;6.20;4.10;;;;;;;19.93;78.75;96864.70;109067;1267;22529;-89
2023/06/22 01:41:18;;;;;;;5.80;4.20;;;;;;;19.94;78.86;96865.45;109056;1267;22507;-89
2023/06/22 01:43:50;;;;;;;6.30;4.30;;;;;;;19.97;79.10;96868.23;109015;1270;23070;-89
2023/06/22 01:46:22;;;;;;;7.50;3.90;;;;;;;19.98;79.08;96865.80;109030;1266;70046;-89
2023/06/22 01:48:55;;;;;;;7.60;4.00;;;;;;;19.96;78.90;96875.56;109090;1272;22517;-89
2023/06/22 01:51:27;;;;;;;8.30;4.80;;;;;;;19.94;79.00;96880.73;109162;1267;22567;-89
2023/06/22 01:53:59;;;;;;;6.10;4.10;;;;;;;19.93;79.07;96875.02;109056;1270;22518;-89
2023/06/22 01:56:30;;;;;;;6.90;4.30;;;;;;;19.93;78.97;96873.63;108931;1251;155262;-89
2023/06/22 01:59:16;;;;;;;6.10;4.40;;;;;;;19.92;79.03;96882.21;109103;1272;23000;-89
2023/06/22 02:01:58;;;;;;;7.40;4.20;;;;;;;19.88;78.91;96875.39;109055;1267;22521;-89
2023/06/22 02:04:37;;;;;;;5.30;3.70;;;;;;;19.80;78.92;96882.23;109043;1273;22546;-88
2023/06/22 02:07:17;;;;;;;7.10;4.40;;;;;;;19.77;79.05;96889.67;108991;1263;40478;-89
2023/06/22 02:09:51;;;;;;;6.70;4.40;;;;;;;19.75;79.19;96889.91;109053;1273;22515;-89
2023/06/22 02:12:27;;;;;;;6.00;4.00;;;;;;;19.75;79.34;96890.99;109033;1270;23770;-88
2023/06/22 02:15:01;;;;;;;7.20;4.80;;;;;;;19.74;79.24;96887.81;109062;1267;24333;-89
2023/06/22 02:17:34;;;;;;;5.60;4.60;;;;;;;19.70;79.33;96886.33;109062;1269;61539;-88
2023/06/22 02:20:13;;;;;;;8.10;5.50;;;;;;;19.53;78.98;96888.50;109109;1272;22557;-88
2023/06/22 02:22:45;;;;;;;6.00;4.40;;;;;;;19.35;79.58;96893.81;109108;1267;22511;-89
2023/06/22 02:25:17;;;;;;;8.10;4.60;;;;;;;19.26;79.88;96898.52;109081;1254;23016;-88
2023/06/22 02:27:48;;;;;;;8.80;4.80;;;;;;;19.20;80.39;96901.23;109052;1272;65926;-89
2023/06/22 02:30:20;;;;;;;7.60;4.70;;;;;;;19.20;80.74;96901.00;109130;1273;22516;-89
2023/06/22 02:32:58;;;;;;;6.10;4.00;;;;;;;19.18;80.91;96900.27;109092;1257;22555;-89
2023/06/22 02:35:31;;;;;;;6.10;4.40;;;;;;;19.21;81.28;96900.52;109078;1266;22565;-88
2023/06/22 02:38:04;;;;;;;7.70;4.70;;;;;;;19.26;81.41;96898.45;109092;1267;23962;-89
2023/06/22 02:40:35;;;;;;;5.80;4.50;;;;;;;19.29;81.63;96899.98;109031;1268;22573;-90
2023/06/22 02:43:06;;;;;;;7.90;4.00;;;;;;;19.31;81.41;96896.73;109058;1270;24033;-89
2023/06/22 02:45:37;;;;;;;6.50;4.40;;;;;;;19.29;81.43;96900.95;108983;1267;28583;-88
2023/06/22 02:48:09;;;;;;;7.90;4.40;;;;;;;19.26;81.63;96901.05;109082;1267;23800;-89
2023/06/22 02:50:43;;;;;;;7.90;5.00;;;;;;;19.25;81.94;96897.64;109119;1272;22569;-89
2023/06/22 02:53:14;;;;;;;8.00;4.90;;;;;;;19.27;82.08;96902.77;109101;1267;22618;-88
2023/06/22 02:55:46;;;;;;;6.30;5.10;;;;;;;19.30;82.26;96905.36;109168;1265;36694;-88
2023/06/22 02:58:17;;;;;;;6.70;5.00;;;;;;;19.32;82.46;96905.23;109159;1272;22522;-89
2023/06/22 03:00:52;;;;;;;8.10;4.60;;;;;;;19.36;82.41;96909.50;109127;1272;25483;-88
2023/06/22 03:03:26;;;;;;;7.20;4.70;;;;;;;19.37;82.27;96908.92;109107;1272;23802;-88
2023/06/22 03:06:00;;;;;;;8.10;4.80;;;;;;;19.36;82.34;96913.35;109066;1272;32809;-88
2023/06/22 03:08:32;;;;;;;8.20;4.30;;;;;;;19.38;82.43;96912.11;109159;1270;22558;-88
2023/06/22 03:11:03;;;;;;;6.20;5.10;;;;;;;19.39;82.57;96911.61;109040;1272;22525;-89
2023/06/22 03:13:34;;;;;;;7.90;4.70;;;;;;;19.38;82.51;96912.82;109123;1266;22602;-87
2023/06/22 03:16:06;;;;;;;6.70;4.50;;;;;;;19.38;82.78;96912.67;109070;1250;74495;-88
2023/06/22 03:18:37;;;;;;;8.20;4.70;;;;;;;19.40;82.77;96908.66;109052;1272;25277;-89
2023/06/22 03:21:08;;;;;;;7.10;4.80;;;;;;;19.40;82.71;96908.04;109117;1269;24241;-88
2023/06/22 03:23:41;;;;;;;6.30;4.70;;;;;;;19.38;82.78;96903.66;109138;1266;22550;-88
2023/06/22 03:26:12;;;;;;;7.20;5.00;;;;;;;19.39;82.85;96901.85;109093;1267;41023;-88
2023/06/22 03:28:44;;;;;;;7.30;4.70;;;;;;;19.39;82.90;96906.09;109112;1268;22535;-88
2023/06/22 03:31:15;;;;;;;6.30;4.30;;;;;;;19.39;82.96;96909.25;109090;1267;22514;-89
2023/06/22 03:33:47;;;;;;;6.70;4.80;;;;;;;19.40;83.13;96915.41;109104;1266;22560;-88
2023/06/22 03:36:19;;;;;;;7.20;4.80;;;;;;;19.42;83.16;96919.70;109090;1269;42333;-88
2023/06/22 03:38:55;;;;;;;7.30;5.00;;;;;;;19.45;83.36;96926.30;109119;1272;22577;-88
2023/06/22 03:41:30;;;;;;;7.50;4.80;;;;;;;19.48;83.36;96930.10;109147;1269;22621;-88
2023/06/22 03:44:03;;;;;;;6.80;5.20;;;;;;;19.52;83.39;96930.47;109114;1272;24155;-88
2023/06/22 03:46:39;;;;;;;7.20;5.20;;;;;;;19.57;83.31;96932.60;108981;1272;149676;-88
2023/06/22 03:49:14;;;;;;;8.00;5.00;;;;;;;19.60;83.23;96934.26;109123;1266;22519;-88
2023/06/22 03:51:51;;;;;;;7.60;5.00;;;;;;;19.64;83.19;96933.61;109087;1265;22978;-88
2023/06/22 03:54:27;;;;;;;8.00;5.10;;;;;;;19.66;83.17;96940.23;109114;1266;23227;-88
2023/06/22 03:57:23;;;;;;;7.20;4.70;;;;;;;19.67;83.03;96942.33;109099;1266;33572;-87
2023/06/22 04:00:00;;;;;;;9.10;5.40;;;;;;;19.65;83.13;96941.80;109118;1266;22557;-87
2023/06/22 04:02:39;;;;;;;6.90;5.10;;;;;;;19.66;83.09;96949.61;109136;1272;24804;-87
2023/06/22 04:05:10;;;;;;;;;;;;;;;19.67;83.14;96950.64;109156;1267;23864;-83
2023/06/22 04:07:45;;;;;;;6.90;4.70;;;;;;;19.69;83.22;96951.39;109017;1273;43929;-83
2023/06/22 04:10:18;;;;;;;5.80;4.80;;;;;;;19.72;83.20;96951.98;109099;1266;22569;-83
2023/06/22 04:12:54;;;;;;;9.70;5.20;;;;;;;19.74;83.16;96948.54;109130;1272;22509;-84
2023/06/22 04:15:28;;;;;;;7.30;4.80;;;;;;;19.76;83.18;96954.22;109122;1266;24246;-84
2023/06/22 04:18:04;;;;;;;6.60;4.90;;;;;;;19.79;83.16;96948.46;109125;1272;22522;-84
2023/06/22 04:20:36;;;;;;;8.40;5.40;;;;;;;19.85;83.17;96948.29;109137;1272;22531;-84
2023/06/22 04:23:11;;;;;;;8.40;5.30;;;;;;;19.89;83.18;96949.84;109119;1272;22660;-84
2023/06/22 04:25:49;;;;;;;6.80;5.20;;;;;;;19.93;83.21;96955.05;109084;1266;88124;-84
2023/06/22 04:28:21;;;;;;;6.60;4.90;;;;;;;19.94;82.95;96961.79;109117;1266;25429;-85
2023/06/22 04:30:53;;;;;;;8.30;4.90;;;;;;;19.96;82.97;96962.68;109144;1272;22522;-84
2023/06/22 04:33:30;;;;;;;6.90;5.40;;;;;;;19.99;82.98;96961.44;109111;1273;22521;-84
2023/06/22 04:36:03;;;;;;;7.00;4.40;;;;;;;20.05;83.00;96965.55;108992;1272;151624;-84
2023/06/22 04:38:38;;;;;;;6.60;4.80;;;;;;;20.10;83.02;96966.20;109089;1272;22525;-85
2023/06/22 04:41:23;;;;;;;8.00;5.10;;;;;;;20.18;83.17;96970.09;109130;1272;22574;-85
2023/06/22 04:43:59;;;;;;;6.30;4.90;;;;;;;20.28;83.10;96976.21;109109;1272;22530;-84
2023/06/22 04:46:37;;;;;;;7.90;5.40;;;;;;;20.38;82.92;96978.17;109078;1272;47484;-84
2023/06/22 04:49:11;;;;;;;6.90;5.00;;;;;;;20.47;82.93;96976.59;109196;1269;22833;-84
2023/06/22 04:51:44;;;;;;;7.20;5.00;;;;;;;20.57;82.79;96978.48;109060;1266;23830;-85
2023/06/22 04:54:17;;;;;;;8.50;5.30;;;;;;;20.67;82.76;96976.66;109128;1269;23471;-85
2023/06/22 04:56:56;;;;;;;7.80;5.00;;;;;;;20.78;82.60;96976.91;109085;1272;44957;-85
2023/06/22 04:59:33;;;;;;;8.80;4.80;;;;;;;20.90;82.58;96981.34;109048;1259;22510;-85
2023/06/22 05:02:09;;;;;;;7.60;5.00;;;;;;;21.02;82.37;96981.79;109132;1273;22725;-85
2023/06/22 05:04:44;;;;;;;7.20;5.30;;;;;;;21.14;82.33;96986.88;109132;1250;22549;-85
2023/06/22 05:07:16;;;;;;;7.80;4.90;;;;;;;21.24;81.98;96982.05;109106;1272;23977;-86
2023/06/22 05:09:49;;;;;;;9.00;5.20;;;;;;;21.34;81.87;96984.06;109131;1272;23340;-85
2023/06/22 05:12:20;;;;;;;7.10;5.10;;;;;;;21.49;81.98;96982.50;109095;1266;22668;-86
2023/06/22 05:14:54;;;;;;;8.00;5.60;;;;;;;21.65;81.58;96981.05;109102;1272;22543;-85
2023/06/22 05:17:25;;;;;;;7.10;5.90;;;;;;;21.82;81.11;96978.01;109081;1272;53883;-85
2023/06/22 05:19:58;;;;;;;7.00;5.20;;;;;;;21.99;80.55;96973.94;109108;1269;24195;-85
2023/06/22 05:22:31;;;;;;;9.30;5.60;;;;;;;22.16;80.35;96973.20;109113;1266;22535;-85
2023/06/22 05:25:03;;;;;;;7.80;5.30;;;;;;;22.51;80.85;96973.52;109143;1272;22525;-86
2023/06/22 05:27:39;;;;;;;8.20;5.10;;;;;;;23.26;80.79;96976.72;109102;1266;28775;-85
2023/06/22 05:30:13;;;;;;;8.90;5.40;;;;;;;24.34;80.11;96981.87;109154;1266;22524;-85
2023/06/22 05:32:45;;;;;;;7.10;5.20;;;;;;;25.30;77.42;96983.95;109155;1269;22521;-85
2023/06/22 05:35:17;;;;;;;7.90;5.20;;;;;;;25.49;74.39;96989.35;109114;1270;25332;-85
2023/06/22 05:37:48;;;;;;;7.50;5.30;;;;;;;25.02;72.59;96996.31;109105;1270;24502;-85
2023/06/22 05:40:20;;;;;;;8.80;5.60;;;;;;;24.58;72.66;97002.71;109033;1274;23033;-85
2023/06/22 05:42:51;;;;;;;8.70;5.50;;;;;;;24.22;72.76;97005.89;109029;1273;22528;-85
2023/06/22 05:45:22;;;;;;;10.40;6.00;;;;;;;23.94;72.72;97006.16;109164;1267;22570;-85
2023/06/22 05:47:54;;;;;;;8.10;5.80;;;;;;;23.67;72.78;97004.03;109099;1266;31403;-84
2023/06/22 05:50:25;;;;;;;6.00;5.10;;;;;;;23.46;73.15;97000.04;109075;1267;25290;-85
2023/06/22 05:52:58;;;;;;;9.70;5.50;;;;;;;23.39;73.32;96995.72;109072;1273;22556;-85
2023/06/22 05:55:30;;;;;;;8.10;5.10;;;;;;;23.77;75.16;96989.45;109105;1266;23940;-85
2023/06/22 05:58:03;;;;;;;9.20;5.80;;;;;;;24.73;75.32;96988.33;109126;1272;22533;-85
2023/06/22 06:00:39;;;;;;;10.30;5.90;;;;;;;25.22;71.83;96981.13;109146;1269;22562;-84
2023/06/22 06:03:16;;;;;;;8.10;5.80;;;;;;;25.00;70.86;96990.14;109140;1272;26512;-82
2023/06/22 06:05:48;;;;;;;10.50;5.80;;;;;;;24.95;71.63;96986.08;109137;1272;25959;-82
2023/06/22 06:08:20;;;;;;;10.20;5.80;;;;;;;25.07;70.88;96990.80;109153;1266;25428;-83
2023/06/22 06:10:52;;;;;;;7.90;5.50;;;;;;;25.07;70.41;96992.05;109140;1272;24257;-84
2023/06/22 06:13:28;;;;;;;10.00;5.40;;;;;;;25.19;70.87;96991.23;109142;1272;22728;-86
2023/06/22 06:16:02;;;;;;;8.50;5.20;;;;;;;25.52;71.47;96993.44;109085;1272;35850;-87
2023/06/22 06:18:33;;;;;;;8.20;5.50;;;;;;;26.34;70.29;96995.37;109122;1270;22696;-88
2023/06/22 06:21:09;;;;;;;8.40;5.80;;;;;;;26.88;69.49;97003.11;109109;1267;22564;-87
2023/06/22 06:23:42;;;;;;;8.50;5.20;;;;;;;27.47;68.90;97003.90;109097;1273;25285;-87
2023/06/22 06:26:16;;;;;;;7.80;4.90;;;;;;;28.35;67.84;97000.65;109096;1267;29082;-87
2023/06/22 06:28:49;;;;;;;6.90;5.50;;;;;;;29.22;66.41;97000.43;109116;1273;22506;-85
2023/06/22 06:31:20;;;;;;;8.90;5.70;;;;;;;29.81;64.46;97001.23;109146;1266;22568;-85
2023/06/22 06:33:53;;;;;;;7.60;5.40;;;;;;;30.05;63.02;97003.13;109090;1266;25568;-85
2023/06/22 06:36:33;;;;;;;7.40;5.20;;;;;;;30.14;61.55;97007.48;109139;1269;75538;-85
2023/06/22 06:39:06;;;;;;;7.70;5.20;;;;;;;29.47;60.17;97013.30;109148;1270;22514;-84
2023/06/22 06:41:41;;;;;;;6.70;5.30;;;;;;;28.60;59.91;97016.41;109089;1266;23231;-83
2023/06/22 06:44:22;;;;;;;6.50;5.30;;;;;;;27.87;60.36;97018.89;109238;1266;26549;-83
2023/06/22 06:47:01;;;;;;;8.10;5.70;;;;;;;27.25;61.00;97023.02;109097;1267;36780;-83
2023/06/22 06:49:42;;;;;;;9.50;6.00;;;;;;;26.70;61.93;97027.63;109090;1266;24234;-82
2023/06/22 06:52:23;;;;;;;8.30;6.20;;;;;;;26.37;62.36;97025.01;109117;1270;24160;-83
2023/06/22 06:55:08;;;;;;;9.00;6.50;;;;;;;26.12;63.33;97022.05;109078;1273;23878;-84
2023/06/22 06:57:43;;;;;;;9.40;5.80;;;;;;;25.96;63.83;97025.73;109074;1269;22524;-83
2023/06/22 07:00:31;;;;;;;7.40;5.60;;;;;;;25.85;64.54;97021.08;109145;1268;22510;-83
2023/06/22 07:03:11;;;;;;;11.20;5.40;;;;;;;26.03;64.65;97023.35;109115;1273;26574;-84
2023/06/22 07:05:48;;;;;;;9.50;6.10;;;;;;;26.04;64.51;97020.48;109093;1267;24774;-83
2023/06/22 07:08:23;;;;;;;9.10;6.20;;;;;;;26.39;65.06;97014.70;109123;1273;22539;-84
2023/06/22 07:10:57;;;;;;;8.70;6.40;;;;;;;26.85;64.07;97016.44;109128;1270;22582;-84
2023/06/22 07:13:33;;;;;;;7.60;6.50;;;;;;;27.03;63.73;97019.42;109140;1273;22505;-84
2023/06/22 07:16:25;;;;;;;11.20;6.80;;;;;;;27.13;63.59;97024.57;109083;1266;29395;-84
2023/06/22 07:19:04;;;;;;;9.00;7.00;;;;;;;27.33;63.43;97030.88;109067;1273;25466;-84
2023/06/22 07:21:42;;;;;;;9.10;6.30;;;;;;;27.32;62.42;97032.35;109092;1274;23770;-83
2023/06/22 07:24:19;;;;;;;11.90;7.50;;;;;;;27.05;62.15;97028.70;109145;1270;25105;-84
2023/06/22 07:27:12;;;;;;;10.30;6.60;;;;;;;26.63;62.08;97025.85;109105;1267;22526;-86
2023/06/22 07:29:51;;;;;;;11.90;6.80;;;;;;;26.30;62.67;97025.46;109111;1273;23807;-86
2023/06/22 07:32:31;;;;;;;10.50;7.60;;;;;;;26.02;63.06;97029.77;109112;1273;22517;-84
2023/06/22 07:35:16;;;;;;;9.60;7.10;;;;;;;25.91;63.87;97027.46;109107;1270;23793;-87
2023/06/22 07:37:59;;;;;;;10.80;7.60;;;;;;;25.98;64.22;97027.32;109102;1270;23031;-87
2023/06/22 07:40:44;;;;;;;9.00;7.90;;;;;;;26.05;64.70;97025.92;109104;1269;23844;-85
2023/06/22 07:43:25;;;;;;;11.10;8.30;;;;;;;26.11;64.59;97021.89;109080;1266;25291;-87
2023/06/22 07:46:01;;;;;;;10.30;7.30;;;;;;;26.14;64.75;97018.20;109036;1266;24555;-84
2023/06/22 07:48:41;;;;;;;12.00;10.00;;;;;;;26.13;64.59;97012.81;109080;1269;22592;-84
2023/06/22 07:51:18;;;;;;;11.30;8.10;;;;;;;26.03;64.73;97009.83;109081;1266;22619;-85
2023/06/22 07:53:54;;;;;;;10.40;8.70;;;;;;;25.91;64.29;97004.33;109136;1272;22529;-85
2023/06/22 07:56:33;;;;;;;10.30;9.30;;;;;;;25.73;64.12;97005.79;109143;1268;42803;-85
2023/06/22 07:59:14;;;;;;;12.80;9.70;;;;;;;25.75;65.12;97006.90;109177;1265;22585;-84
2023/06/22 08:01:50;;;;;;;11.20;9.90;;;;;;;26.12;65.61;97002.72;109167;1266;25544;-84
2023/06/22 08:04:24;;;;;;;12.80;9.30;;;;;;;26.46;65.39;97003.91;109172;1269;22632;-84
2023/06/22 08:07:01;;;;;;;10.70;9.60;;;;;;;26.80;64.67;97002.55;109106;1272;25498;-85
2023/06/22 08:09:36;;;;;;;10.40;9.30;;;;;;;27.07;64.03;97007.02;109188;1269;22546;-84
2023/06/22 08:12:12;;;;;;;10.50;9.40;;;;;;;27.28;63.55;97011.93;109171;1266;22627;-84
2023/06/22 08:14:46;;;;;;;11.80;9.40;;;;;;;27.54;63.36;97012.20;109215;1272;22533;-84
2023/06/22 08:17:30;;;;;;;11.60;9.70;;;;;;;27.99;63.13;97015.36;109162;1265;22290;-84
2023/06/22 08:20:12;;;;;;;10.30;9.30;;;;;;;28.46;62.55;97014.88;109095;1272;26466;-84
2023/06/22 08:22:48;;;;;;;10.50;9.40;;;;;;;28.51;61.56;97014.35;109170;1266;23010;-85
2023/06/22 08:25:23;;;;;;;11.30;9.40;;;;;;;28.75;61.37;97019.78;109186;1272;24173;-84
2023/06/22 08:28:08;;;;;;;10.60;9.10;;;;;;;28.75;60.30;97021.81;109068;1267;65320;-85
2023/06/22 08:30:48;;;;;;;12.10;9.70;;;;;;;28.36;59.84;97026.60;109072;1269;22557;-84
2023/06/22 08:33:28;;;;;;;11.50;9.70;;;;;;;28.06;59.97;97030.52;109102;1273;22558;-84
2023/06/22 08:36:10;;;;;;;12.00;10.00;;;;;;;28.03;60.64;97030.89;109031;1266;40744;-84
2023/06/22 08:38:51;;;;;;;12.20;10.30;;;;;;;27.97;60.63;97031.79;109069;1267;22546;-84
2023/06/22 08:41:27;;;;;;;11.70;10.30;;;;;;;27.94;60.76;97025.00;109092;1268;22512;-85
2023/06/22 08:44:11;;;;;;;12.90;10.80;;;;;;;27.88;60.53;97027.15;109114;1273;26176;-85
2023/06/22 08:46:52;;;;;;;12.60;11.20;;;;;;;27.53;60.67;97027.06;107818;1272;1738298;-84
2023/06/22 08:49:33;;;;;;;12.80;11.50;;;;;;;27.28;61.27;97027.09;109144;1250;22533;-84
2023/06/22 08:52:16;;;;;;;13.00;11.70;;;;;;;27.07;61.40;97026.77;109129;1266;22507;-84
2023/06/22 08:54:51;;;;;;;13.50;12.20;;;;;;;26.85;61.68;97030.28;109218;1266;22312;-83
2023/06/22 08:57:32;;;;;;;;;;;;;;;26.69;62.17;97037.41;109129;1268;25452;-84
2023/06/22 09:00:32;;;;;;;14.90;13.40;;;;;;;26.76;62.90;97033.30;109079;1273;25447;-83
2023/06/22 09:03:11;;;;;;;16.90;13.10;;;;;;;26.95;63.02;97026.02;109091;1266;22586;-83
2023/06/22 09:05:49;;;;;;;14.00;12.60;;;;;;;26.93;63.04;97023.52;109081;1270;45286;-83
2023/06/22 09:08:23;;;;;;;;;;;;;;;26.93;63.37;97028.72;109138;1268;25430;-83
2023/06/22 09:10:57;;;;;;;14.40;12.80;;;;;;;26.90;63.26;97034.38;109258;1268;22524;-84
2023/06/22 09:13:29;;;;;;;15.50;13.80;;;;;;;26.83;63.66;97035.14;109117;1272;22559;-84
2023/06/22 09:16:01;;;;;;;17.50;15.00;;;;;;;26.68;63.63;97034.76;109153;1265;22661;-83
2023/06/22 09:18:33;;;;;;;17.10;15.30;;;;;;;26.45;63.40;97030.78;109124;1266;22557;-83
2023/06/22 09:21:07;;;;;;;16.20;14.80;;;;;;;26.28;64.15;97030.79;109169;1266;25407;-83
2023/06/22 09:23:38;;;;;;;17.10;14.10;;;;;;;26.19;64.14;97031.31;109103;1273;22520;-84
2023/06/22 09:26:11;;;;;;;15.90;14.20;;;;;;;26.08;64.37;97031.70;109136;1265;22543;-84
2023/06/22 09:28:42;;;;;;;16.60;14.90;;;;;;;26.00;64.50;97028.27;109210;1266;24013;-84
2023/06/22 09:31:16;;;;;;;17.20;15.20;;;;;;;25.87;64.61;97027.40;109150;1262;23051;-83
2023/06/22 09:34:02;;;;;;;16.60;14.90;;;;;;;25.75;65.20;97028.46;109235;1266;25427;-82
2023/06/22 09:37:02;;;;;;;16.00;13.90;;;;;;;26.03;66.70;97027.45;109050;1266;68630;-82
2023/06/22 09:39:34;;;;;;;16.80;15.00;;;;;;;26.21;66.36;97026.99;109011;1266;25247;-83
2023/06/22 09:42:13;;;;;;;18.60;15.60;;;;;;;26.14;65.49;97033.11;109088;1270;22523;-82
2023/06/22 09:44:49;;;;;;;16.20;14.60;;;;;;;26.03;65.29;97032.34;109113;1270;23278;-82
2023/06/22 09:47:20;;;;;;;16.60;15.10;;;;;;;26.09;65.37;97033.35;107225;1270;2566501;-81
2023/06/22 09:49:55;;;;;;;16.90;15.40;;;;;;;26.19;65.33;97035.48;109122;1266;22526;-82
2023/06/22 09:52:54;;;;;;;17.20;15.60;;;;;;;26.35;65.47;97033.14;109137;1273;25282;-81
2023/06/22 09:55:27;;;;;;;17.60;15.80;;;;;;;26.39;64.81;97034.36;109128;1272;22542;-82
2023/06/22 09:58:17;;;;;;;16.70;15.10;;;;;;;26.37;64.73;97034.95;109042;1266;155937;-82
2023/06/22 10:01:11;;;;;;;19.00;17.00;;;;;;;26.40;65.00;97034.21;109175;1266;23303;-80
2023/06/22 10:03:49;;;;;;;18.60;16.60;;;;;;;26.46;65.27;97030.48;109118;1266;22515;-80
2023/06/22 10:06:24;;;;;;;19.90;17.90;;;;;;;26.47;65.01;97027.09;109019;1266;146809;-81
2023/06/22 10:08:57;;;;;;;18.90;17.00;;;;;;;26.58;65.93;97024.71;109153;1266;22507;-82
2023/06/22 10:11:34;;;;;;;18.90;17.20;;;;;;;26.68;65.69;97029.78;109145;1266;22530;-82
2023/06/22 10:14:12;;;;;;;19.40;17.50;;;;;;;26.63;65.75;97028.11;109190;1249;22552;-82
2023/06/22 10:16:53;;;;;;;19.00;17.20;;;;;;;26.55;65.22;97026.70;109110;1273;74370;-82
2023/06/22 10:19:28;;;;;;;20.40;18.40;;;;;;;26.48;64.88;97022.12;109172;1265;25114;-81
2023/06/22 10:22:26;;;;;;;;;;;;;;;;;;;;;
2023/06/22 10:25:06;;;;;;;20.30;18.30;;;;;;;26.72;65.63;97021.83;109152;1269;22642;-82
2023/06/22 10:27:43;;;;;;;21.30;19.50;;;;;;;26.74;64.88;97021.30;109051;1272;56449;-82
2023/06/22 10:30:31;;;;;;;21.60;19.70;;;;;;;26.58;63.87;97016.17;109117;1269;22511;-82
2023/06/22 10:33:07;;;;;;;20.90;19.00;;;;;;;26.61;64.45;97019.84;109164;1272;24209;-81
2023/06/22 10:35:55;;;;;;;21.00;19.10;;;;;;;26.70;64.58;97026.93;109143;1270;22510;-81
2023/06/22 10:38:46;;;;;;;22.20;19.90;;;;;;;26.80;64.79;97016.00;109123;1273;22541;-79
2023/06/22 10:41:29;;;;;;;24.00;21.60;;;;;;;26.82;64.45;97010.81;108832;1266;22552;-79
2023/06/22 10:44:32;;;;;;;26.00;23.40;;;;;;;26.82;64.19;97018.13;108740;1265;22519;-79
2023/06/22 10:47:06;;;;;;;25.10;22.80;;;;;;;27.02;65.02;97017.31;107759;1268;1850289;-79
2023/06/22 10:49:44;;;;;;;26.10;23.70;;;;;;;27.13;64.71;97016.95;108804;1270;22578;-81
2023/06/22 10:52:18;;;;;;;25.50;23.10;;;;;;;27.02;63.68;97013.89;109154;1270;22551;-82
2023/06/22 10:54:52;;;;;;;24.70;22.30;;;;;;;26.94;64.12;97010.39;109131;1266;22575;-82
2023/06/22 10:57:44;;;;;;;24.80;22.40;;;;;;;26.96;64.38;97008.21;109059;1269;61367;-82
2023/06/22 11:00:19;;;;;;;23.70;21.40;;;;;;;26.95;64.29;97003.86;109129;1272;22526;-82
2023/06/22 11:02:51;;;;;;;25.10;22.50;;;;;;;26.87;64.32;97003.63;109145;1266;22575;-82
2023/06/22 11:05:27;;;;;;;22.90;20.90;;;;;;;26.82;64.13;97001.64;109150;1266;22514;-82
2023/06/22 11:08:14;;;;;;;21.70;19.50;;;;;;;26.69;64.07;97003.61;109070;1268;56296;-82
2023/06/22 11:10:49;;;;;;;22.00;19.80;;;;;;;26.69;64.28;97002.44;109131;1273;23384;-82
2023/06/22 11:13:24;;;;;;;20.20;18.40;;;;;;;26.83;64.34;96998.39;109119;1266;22885;-82
2023/06/22 11:16:00;;;;;;;21.50;19.50;;;;;;;27.03;64.30;96998.58;109019;1266;81724;-81
2023/06/22 11:18:44;;;;;;;21.00;19.00;;;;;;;27.18;63.97;96989.92;109097;1262;22709;-81
2023/06/22 11:21:34;;;;;;;20.00;18.20;;;;;;;27.27;63.76;96986.33;109051;1267;22550;-82
2023/06/22 11:24:33;;;;;;;19.40;17.60;;;;;;;27.24;62.98;96994.88;109106;1267;23141;-82
2023/06/22 11:27:23;;;;;;;18.60;16.60;;;;;;;27.22;62.65;96996.02;104945;1271;5494773;-81
2023/06/22 11:30:08;;;;;;;19.60;17.90;;;;;;;27.27;62.55;96989.29;109098;1267;22626;-82
2023/06/22 11:32:42;;;;;;;18.30;16.50;;;;;;;27.35;62.11;96980.56;109092;1266;22951;-81
2023/06/22 11:35:20;;;;;;;16.80;15.20;;;;;;;27.47;62.30;96979.08;109076;1273;22528;-82
2023/06/22 11:37:58;;;;;;;16.30;14.80;;;;;;;27.66;61.87;96975.79;108989;1271;91332;-82
2023/06/22 11:40:31;;;;;;;16.40;14.90;;;;;;;27.80;61.42;96971.05;109045;1269;22569;-82
2023/06/22 11:43:02;;;;;;;16.60;15.00;;;;;;;27.81;61.39;96974.95;109071;1266;22539;-82
2023/06/22 11:45:33;;;;;;;16.90;15.20;;;;;;;27.84;61.55;96973.08;109121;1266;22522;-82
2023/06/22 11:48:12;;;;;;;17.10;15.50;;;;;;;27.92;62.21;96973.91;109165;1267;31361;-82
2023/06/22 11:50:43;;;;;;;16.40;14.70;;;;;;;28.03;61.54;96967.81;109110;1273;25284;-82
2023/06/22 11:53:17;;;;;;;15.70;14.30;;;;;;;28.00;61.48;96967.72;109061;1260;22519;-81
2023/06/22 11:55:55;;;;;;;15.60;14.10;;;;;;;27.93;61.71;96970.17;109199;1262;22523;-82
2023/06/22 11:58:26;;;;;;;16.10;14.70;;;;;;;27.83;61.56;96965.15;107483;1268;2143312;-83
2023/06/22 12:01:02;;;;;;;16.00;14.50;;;;;;;27.68;61.00;96963.27;109074;1269;24206;-81
2023/06/22 12:03:36;;;;;;;15.90;14.40;;;;;;;27.51;60.94;96960.29;109102;1270;22519;-81